sensor_id;sensor_type;location;lat;lon;timestamp;P1;durP1;ratioP1;P2;durP2;ratioP2
78989;SDS011;68390;52.130;21.218;2024-03-23T00:54:18;26.70;;;14.82;;
78989;SDS011;68390;52.130;21.218;2024-03-23T00:56:44;25.83;;;13.00;;
78989;SDS011;68390;52.130;21.218;2024-03-23T00:59:09;23.80;;;11.85;;
78989;SDS011;68390;52.130;21.218;2024-03-23T01:01:34;25.00;;;12.98;;
78989;SDS011;68390;52.130;21.218;2024-03-23T01:04:00;29.42;;;15.43;;
78989;SDS011;68390;52.130;21.218;2024-03-23T01:06:25;27.35;;;13.70;;
78989;SDS011;68390;52.130;21.218;2024-03-23T01:08:51;26.90;;;12.73;;
78989;SDS011;68390;52.130;21.218;2024-03-23T01:11:17;26.95;;;14.75;;
78989;SDS011;68390;52.130;21.218;2024-03-23T01:13:42;24.80;;;13.25;;
78989;SDS011;68390;52.130;21.218;2024-03-23T01:16:08;30.85;;;15.52;;
78989;SDS011;68390;52.130;21.218;2024-03-23T01:18:33;30.65;;;16.65;;
78989;SDS011;68390;52.130;21.218;2024-03-23T01:20:59;27.85;;;14.60;;
78989;SDS011;68390;52.130;21.218;2024-03-23T01:23:24;27.65;;;14.93;;
78989;SDS011;68390;52.130;21.218;2024-03-23T01:25:53;30.98;;;15.80;;
78989;SDS011;68390;52.130;21.218;2024-03-23T01:28:20;32.80;;;15.52;;
78989;SDS011;68390;52.130;21.218;2024-03-23T01:30:46;33.38;;;15.63;;
78989;SDS011;68390;52.130;21.218;2024-03-23T01:33:12;29.70;;;14.05;;
78989;SDS011;68390;52.130;21.218;2024-03-23T01:35:37;32.45;;;15.23;;
78989;SDS011;68390;52.130;21.218;2024-03-23T01:38:03;33.33;;;16.20;;
78989;SDS011;68390;52.130;21.218;2024-03-23T01:40:29;32.35;;;15.27;;
78989;SDS011;68390;52.130;21.218;2024-03-23T01:43:04;28.65;;;14.63;;
78989;SDS011;68390;52.130;21.218;2024-03-23T01:47:58;25.27;;;13.00;;
78989;SDS011;68390;52.130;21.218;2024-03-23T01:50:24;32.15;;;15.15;;
78989;SDS011;68390;52.130;21.218;2024-03-23T01:52:50;30.73;;;15.65;;
78989;SDS011;68390;52.130;21.218;2024-03-23T01:55:16;29.73;;;14.35;;
78989;SDS011;68390;52.130;21.218;2024-03-23T01:57:41;30.95;;;14.68;;
78989;SDS011;68390;52.130;21.218;2024-03-23T02:00:07;31.00;;;15.27;;
78989;SDS011;68390;52.130;21.218;2024-03-23T02:02:34;33.00;;;16.10;;
78989;SDS011;68390;52.130;21.218;2024-03-23T02:04:59;33.60;;;15.45;;
78989;SDS011;68390;52.130;21.218;2024-03-23T02:07:25;28.05;;;13.48;;
78989;SDS011;68390;52.130;21.218;2024-03-23T02:09:51;31.77;;;15.70;;
78989;SDS011;68390;52.130;21.218;2024-03-23T02:12:17;32.13;;;16.20;;
78989;SDS011;68390;52.130;21.218;2024-03-23T02:14:43;32.45;;;15.90;;
78989;SDS011;68390;52.130;21.218;2024-03-23T02:17:08;31.17;;;15.43;;
78989;SDS011;68390;52.130;21.218;2024-03-23T02:19:34;30.92;;;14.43;;
78989;SDS011;68390;52.130;21.218;2024-03-23T02:21:59;32.65;;;16.20;;
78989;SDS011;68390;52.130;21.218;2024-03-23T02:24:25;32.65;;;13.85;;
78989;SDS011;68390;52.130;21.218;2024-03-23T02:26:50;28.17;;;14.75;;
78989;SDS011;68390;52.130;21.218;2024-03-23T02:29:15;37.58;;;16.42;;
78989;SDS011;68390;52.130;21.218;2024-03-23T02:31:41;35.65;;;15.13;;
78989;SDS011;68390;52.130;21.218;2024-03-23T02:34:07;38.78;;;16.95;;
78989;SDS011;68390;52.130;21.218;2024-03-23T02:36:32;33.50;;;14.70;;
78989;SDS011;68390;52.130;21.218;2024-03-23T02:38:57;32.10;;;14.77;;
78989;SDS011;68390;52.130;21.218;2024-03-23T02:41:23;33.00;;;15.82;;
78989;SDS011;68390;52.130;21.218;2024-03-23T02:43:51;32.15;;;15.35;;
78989;SDS011;68390;52.130;21.218;2024-03-23T02:46:17;32.28;;;14.20;;
78989;SDS011;68390;52.130;21.218;2024-03-23T02:48:43;33.95;;;16.88;;
78989;SDS011;68390;52.130;21.218;2024-03-23T02:51:08;36.35;;;16.45;;
78989;SDS011;68390;52.130;21.218;2024-03-23T02:53:34;28.75;;;14.57;;
78989;SDS011;68390;52.130;21.218;2024-03-23T02:55:59;34.58;;;15.60;;
78989;SDS011;68390;52.130;21.218;2024-03-23T02:58:25;29.85;;;14.07;;
78989;SDS011;68390;52.130;21.218;2024-03-23T03:00:51;29.60;;;13.82;;
78989;SDS011;68390;52.130;21.218;2024-03-23T03:03:16;35.17;;;15.98;;
78989;SDS011;68390;52.130;21.218;2024-03-23T03:05:42;31.50;;;14.57;;
78989;SDS011;68390;52.130;21.218;2024-03-23T03:08:08;34.83;;;16.30;;
78989;SDS011;68390;52.130;21.218;2024-03-23T03:10:33;33.10;;;15.48;;
78989;SDS011;68390;52.130;21.218;2024-03-23T03:13:01;29.95;;;14.27;;
78989;SDS011;68390;52.130;21.218;2024-03-23T03:15:27;31.02;;;15.27;;
78989;SDS011;68390;52.130;21.218;2024-03-23T03:17:52;33.58;;;16.17;;
78989;SDS011;68390;52.130;21.218;2024-03-23T03:20:18;30.38;;;15.02;;
78989;SDS011;68390;52.130;21.218;2024-03-23T03:22:43;34.60;;;15.88;;
78989;SDS011;68390;52.130;21.218;2024-03-23T03:25:09;36.60;;;16.30;;
78989;SDS011;68390;52.130;21.218;2024-03-23T03:27:34;39.25;;;16.75;;
78989;SDS011;68390;52.130;21.218;2024-03-23T03:30:00;37.20;;;16.48;;
78989;SDS011;68390;52.130;21.218;2024-03-23T03:32:31;39.88;;;16.33;;
78989;SDS011;68390;52.130;21.218;2024-03-23T03:34:57;34.00;;;15.40;;
78989;SDS011;68390;52.130;21.218;2024-03-23T03:37:23;33.03;;;15.07;;
78989;SDS011;68390;52.130;21.218;2024-03-23T03:39:48;40.88;;;17.00;;
78989;SDS011;68390;52.130;21.218;2024-03-23T03:42:14;41.58;;;18.23;;
78989;SDS011;68390;52.130;21.218;2024-03-23T03:44:40;39.15;;;17.33;;
78989;SDS011;68390;52.130;21.218;2024-03-23T03:47:05;30.42;;;14.50;;
78989;SDS011;68390;52.130;21.218;2024-03-23T03:49:31;41.35;;;18.08;;
78989;SDS011;68390;52.130;21.218;2024-03-23T03:51:57;40.45;;;17.60;;
78989;SDS011;68390;52.130;21.218;2024-03-23T03:54:22;42.55;;;18.25;;
78989;SDS011;68390;52.130;21.218;2024-03-23T03:56:47;39.55;;;17.05;;
78989;SDS011;68390;52.130;21.218;2024-03-23T03:59:13;29.83;;;13.63;;
78989;SDS011;68390;52.130;21.218;2024-03-23T04:01:39;36.15;;;16.17;;
78989;SDS011;68390;52.130;21.218;2024-03-23T04:04:04;35.90;;;15.18;;
78989;SDS011;68390;52.130;21.218;2024-03-23T04:06:50;35.58;;;16.52;;
78989;SDS011;68390;52.130;21.218;2024-03-23T04:09:23;36.15;;;16.60;;
78989;SDS011;68390;52.130;21.218;2024-03-23T04:11:49;45.45;;;17.38;;
78989;SDS011;68390;52.130;21.218;2024-03-23T04:14:14;41.72;;;17.45;;
78989;SDS011;68390;52.130;21.218;2024-03-23T04:16:39;31.83;;;14.73;;
78989;SDS011;68390;52.130;21.218;2024-03-23T04:19:05;34.90;;;17.38;;
78989;SDS011;68390;52.130;21.218;2024-03-23T04:21:30;34.38;;;14.98;;
78989;SDS011;68390;52.130;21.218;2024-03-23T04:23:56;40.50;;;17.17;;
78989;SDS011;68390;52.130;21.218;2024-03-23T04:26:21;35.10;;;15.70;;
78989;SDS011;68390;52.130;21.218;2024-03-23T04:28:46;40.33;;;18.20;;
78989;SDS011;68390;52.130;21.218;2024-03-23T04:31:12;41.30;;;16.27;;
78989;SDS011;68390;52.130;21.218;2024-03-23T04:33:37;35.08;;;16.67;;
78989;SDS011;68390;52.130;21.218;2024-03-23T04:36:03;36.17;;;15.25;;
78989;SDS011;68390;52.130;21.218;2024-03-23T04:38:29;33.10;;;15.50;;
78989;SDS011;68390;52.130;21.218;2024-03-23T04:40:57;32.70;;;15.65;;
78989;SDS011;68390;52.130;21.218;2024-03-23T04:43:25;38.03;;;16.70;;
78989;SDS011;68390;52.130;21.218;2024-03-23T04:45:51;40.10;;;16.98;;
78989;SDS011;68390;52.130;21.218;2024-03-23T04:48:19;41.97;;;18.73;;
78989;SDS011;68390;52.130;21.218;2024-03-23T04:50:45;38.95;;;17.20;;
78989;SDS011;68390;52.130;21.218;2024-03-23T04:53:10;43.05;;;18.05;;
78989;SDS011;68390;52.130;21.218;2024-03-23T04:55:36;36.78;;;17.85;;
78989;SDS011;68390;52.130;21.218;2024-03-23T04:58:02;37.75;;;17.17;;
78989;SDS011;68390;52.130;21.218;2024-03-23T05:00:28;32.08;;;15.93;;
78989;SDS011;68390;52.130;21.218;2024-03-23T05:02:53;45.45;;;18.50;;
78989;SDS011;68390;52.130;21.218;2024-03-23T05:05:18;36.83;;;17.27;;
78989;SDS011;68390;52.130;21.218;2024-03-23T05:07:44;41.78;;;18.58;;
78989;SDS011;68390;52.130;21.218;2024-03-23T05:10:09;40.85;;;18.00;;
78989;SDS011;68390;52.130;21.218;2024-03-23T05:12:35;37.42;;;17.30;;
78989;SDS011;68390;52.130;21.218;2024-03-23T05:15:01;36.92;;;17.38;;
78989;SDS011;68390;52.130;21.218;2024-03-23T05:17:26;42.85;;;17.80;;
78989;SDS011;68390;52.130;21.218;2024-03-23T05:19:52;37.53;;;17.02;;
78989;SDS011;68390;52.130;21.218;2024-03-23T05:22:17;43.88;;;17.90;;
78989;SDS011;68390;52.130;21.218;2024-03-23T05:24:44;44.58;;;19.70;;
78989;SDS011;68390;52.130;21.218;2024-03-23T05:27:10;37.40;;;18.48;;
78989;SDS011;68390;52.130;21.218;2024-03-23T05:29:35;36.88;;;16.70;;
78989;SDS011;68390;52.130;21.218;2024-03-23T05:32:01;31.30;;;15.30;;
78989;SDS011;68390;52.130;21.218;2024-03-23T05:34:26;36.50;;;17.42;;
78989;SDS011;68390;52.130;21.218;2024-03-23T05:36:53;34.80;;;17.55;;
78989;SDS011;68390;52.130;21.218;2024-03-23T05:39:19;38.08;;;17.50;;
78989;SDS011;68390;52.130;21.218;2024-03-23T05:41:47;43.08;;;18.15;;
78989;SDS011;68390;52.130;21.218;2024-03-23T05:44:12;42.35;;;18.67;;
78989;SDS011;68390;52.130;21.218;2024-03-23T05:46:38;43.17;;;18.85;;
78989;SDS011;68390;52.130;21.218;2024-03-23T05:49:03;37.88;;;18.65;;
78989;SDS011;68390;52.130;21.218;2024-03-23T05:51:28;36.10;;;17.48;;
78989;SDS011;68390;52.130;21.218;2024-03-23T05:53:54;36.88;;;18.10;;
78989;SDS011;68390;52.130;21.218;2024-03-23T05:56:19;39.83;;;20.35;;
78989;SDS011;68390;52.130;21.218;2024-03-23T05:58:45;35.17;;;16.60;;
78989;SDS011;68390;52.130;21.218;2024-03-23T06:01:11;34.83;;;17.25;;
78989;SDS011;68390;52.130;21.218;2024-03-23T06:03:37;36.47;;;16.65;;
78989;SDS011;68390;52.130;21.218;2024-03-23T06:06:03;35.58;;;17.02;;
78989;SDS011;68390;52.130;21.218;2024-03-23T06:08:29;37.42;;;17.52;;
78989;SDS011;68390;52.130;21.218;2024-03-23T06:10:54;36.20;;;15.70;;
78989;SDS011;68390;52.130;21.218;2024-03-23T06:13:20;35.33;;;16.25;;
78989;SDS011;68390;52.130;21.218;2024-03-23T06:15:49;34.92;;;16.67;;
78989;SDS011;68390;52.130;21.218;2024-03-23T06:18:15;35.97;;;16.20;;
78989;SDS011;68390;52.130;21.218;2024-03-23T06:20:41;45.40;;;19.73;;
78989;SDS011;68390;52.130;21.218;2024-03-23T06:23:07;36.97;;;17.55;;
78989;SDS011;68390;52.130;21.218;2024-03-23T06:25:32;28.02;;;14.60;;
78989;SDS011;68390;52.130;21.218;2024-03-23T06:27:58;37.22;;;16.38;;
78989;SDS011;68390;52.130;21.218;2024-03-23T06:30:23;36.00;;;16.88;;
78989;SDS011;68390;52.130;21.218;2024-03-23T06:32:49;39.63;;;16.80;;
78989;SDS011;68390;52.130;21.218;2024-03-23T06:35:14;35.20;;;17.40;;
78989;SDS011;68390;52.130;21.218;2024-03-23T06:37:40;38.13;;;17.55;;
78989;SDS011;68390;52.130;21.218;2024-03-23T06:40:06;39.45;;;17.90;;
78989;SDS011;68390;52.130;21.218;2024-03-23T06:42:34;35.38;;;17.08;;
78989;SDS011;68390;52.130;21.218;2024-03-23T06:45:00;36.35;;;17.63;;
78989;SDS011;68390;52.130;21.218;2024-03-23T06:47:26;39.22;;;17.23;;
78989;SDS011;68390;52.130;21.218;2024-03-23T06:49:51;41.30;;;17.90;;
78989;SDS011;68390;52.130;21.218;2024-03-23T06:52:17;31.85;;;15.32;;
78989;SDS011;68390;52.130;21.218;2024-03-23T06:54:42;33.38;;;16.30;;
78989;SDS011;68390;52.130;21.218;2024-03-23T06:57:09;34.30;;;16.75;;
78989;SDS011;68390;52.130;21.218;2024-03-23T06:59:36;37.67;;;17.65;;
78989;SDS011;68390;52.130;21.218;2024-03-23T07:02:01;41.80;;;18.25;;
78989;SDS011;68390;52.130;21.218;2024-03-23T07:04:27;33.22;;;16.23;;
78989;SDS011;68390;52.130;21.218;2024-03-23T07:09:28;41.88;;;19.23;;
78989;SDS011;68390;52.130;21.218;2024-03-23T07:11:54;39.65;;;18.25;;
78989;SDS011;68390;52.130;21.218;2024-03-23T07:14:21;36.65;;;18.05;;
78989;SDS011;68390;52.130;21.218;2024-03-23T07:16:46;44.10;;;18.80;;
78989;SDS011;68390;52.130;21.218;2024-03-23T07:19:14;36.55;;;17.98;;
78989;SDS011;68390;52.130;21.218;2024-03-23T07:21:41;44.13;;;18.73;;
78989;SDS011;68390;52.130;21.218;2024-03-23T07:24:07;41.95;;;18.40;;
78989;SDS011;68390;52.130;21.218;2024-03-23T07:26:32;40.38;;;19.98;;
78989;SDS011;68390;52.130;21.218;2024-03-23T07:28:58;39.40;;;19.38;;
78989;SDS011;68390;52.130;21.218;2024-03-23T07:31:23;42.67;;;20.08;;
78989;SDS011;68390;52.130;21.218;2024-03-23T07:33:50;46.17;;;19.45;;
78989;SDS011;68390;52.130;21.218;2024-03-23T07:36:16;42.30;;;19.17;;
78989;SDS011;68390;52.130;21.218;2024-03-23T07:38:42;46.33;;;20.60;;
78989;SDS011;68390;52.130;21.218;2024-03-23T07:41:11;41.33;;;19.88;;
78989;SDS011;68390;52.130;21.218;2024-03-23T07:43:37;36.85;;;18.55;;
78989;SDS011;68390;52.130;21.218;2024-03-23T07:46:03;43.60;;;20.20;;
78989;SDS011;68390;52.130;21.218;2024-03-23T07:48:30;42.20;;;19.55;;
78989;SDS011;68390;52.130;21.218;2024-03-23T07:50:57;44.65;;;19.77;;
78989;SDS011;68390;52.130;21.218;2024-03-23T07:53:23;41.88;;;18.25;;
78989;SDS011;68390;52.130;21.218;2024-03-23T07:55:52;39.80;;;19.33;;
78989;SDS011;68390;52.130;21.218;2024-03-23T07:58:28;44.45;;;19.60;;
78989;SDS011;68390;52.130;21.218;2024-03-23T08:00:54;41.50;;;19.23;;
78989;SDS011;68390;52.130;21.218;2024-03-23T08:03:20;51.13;;;22.05;;
78989;SDS011;68390;52.130;21.218;2024-03-23T08:05:46;46.97;;;19.52;;
78989;SDS011;68390;52.130;21.218;2024-03-23T08:08:12;37.25;;;17.70;;
78989;SDS011;68390;52.130;21.218;2024-03-23T08:10:46;42.58;;;19.33;;
78989;SDS011;68390;52.130;21.218;2024-03-23T08:13:15;46.00;;;20.25;;
78989;SDS011;68390;52.130;21.218;2024-03-23T08:15:41;30.95;;;14.75;;
78989;SDS011;68390;52.130;21.218;2024-03-23T08:18:06;39.20;;;17.77;;
78989;SDS011;68390;52.130;21.218;2024-03-23T08:20:32;32.30;;;15.45;;
78989;SDS011;68390;52.130;21.218;2024-03-23T08:22:58;42.05;;;18.73;;
78989;SDS011;68390;52.130;21.218;2024-03-23T08:25:23;41.92;;;18.13;;
78989;SDS011;68390;52.130;21.218;2024-03-23T08:27:48;35.88;;;16.55;;
78989;SDS011;68390;52.130;21.218;2024-03-23T08:30:14;36.03;;;15.57;;
78989;SDS011;68390;52.130;21.218;2024-03-23T08:32:39;36.60;;;16.17;;
78989;SDS011;68390;52.130;21.218;2024-03-23T08:35:11;36.70;;;16.48;;
78989;SDS011;68390;52.130;21.218;2024-03-23T08:37:36;37.85;;;15.80;;
78989;SDS011;68390;52.130;21.218;2024-03-23T08:40:01;34.45;;;14.57;;
78989;SDS011;68390;52.130;21.218;2024-03-23T08:42:27;41.33;;;17.15;;
78989;SDS011;68390;52.130;21.218;2024-03-23T08:44:53;34.20;;;15.60;;
78989;SDS011;68390;52.130;21.218;2024-03-23T08:47:18;32.13;;;15.63;;
78989;SDS011;68390;52.130;21.218;2024-03-23T08:49:44;35.88;;;16.25;;
78989;SDS011;68390;52.130;21.218;2024-03-23T08:52:10;33.42;;;15.98;;
78989;SDS011;68390;52.130;21.218;2024-03-23T08:54:35;31.40;;;14.93;;
78989;SDS011;68390;52.130;21.218;2024-03-23T08:57:01;29.98;;;14.95;;
78989;SDS011;68390;52.130;21.218;2024-03-23T08:59:26;31.15;;;14.57;;
78989;SDS011;68390;52.130;21.218;2024-03-23T09:01:52;33.72;;;15.02;;
78989;SDS011;68390;52.130;21.218;2024-03-23T09:04:17;26.85;;;12.68;;
78989;SDS011;68390;52.130;21.218;2024-03-23T09:06:43;24.75;;;12.13;;
78989;SDS011;68390;52.130;21.218;2024-03-23T09:09:08;26.50;;;12.32;;
78989;SDS011;68390;52.130;21.218;2024-03-23T09:11:34;25.20;;;12.32;;
78989;SDS011;68390;52.130;21.218;2024-03-23T09:13:59;25.85;;;11.45;;
78989;SDS011;68390;52.130;21.218;2024-03-23T09:16:25;21.65;;;12.77;;
78989;SDS011;68390;52.130;21.218;2024-03-23T09:18:51;23.75;;;11.30;;
78989;SDS011;68390;52.130;21.218;2024-03-23T09:21:17;18.40;;;10.15;;
78989;SDS011;68390;52.130;21.218;2024-03-23T09:23:52;23.95;;;10.45;;
78989;SDS011;68390;52.130;21.218;2024-03-23T09:26:18;21.92;;;11.10;;
78989;SDS011;68390;52.130;21.218;2024-03-23T09:28:44;21.70;;;11.05;;
78989;SDS011;68390;52.130;21.218;2024-03-23T09:31:09;21.10;;;11.15;;
78989;SDS011;68390;52.130;21.218;2024-03-23T09:33:39;21.17;;;10.77;;
78989;SDS011;68390;52.130;21.218;2024-03-23T09:36:05;19.35;;;9.63;;
78989;SDS011;68390;52.130;21.218;2024-03-23T09:38:31;23.20;;;10.40;;
78989;SDS011;68390;52.130;21.218;2024-03-23T09:40:57;21.80;;;10.95;;
78989;SDS011;68390;52.130;21.218;2024-03-23T09:43:23;20.27;;;11.07;;
78989;SDS011;68390;52.130;21.218;2024-03-23T09:45:48;21.55;;;10.60;;
78989;SDS011;68390;52.130;21.218;2024-03-23T09:48:14;19.70;;;10.25;;
78989;SDS011;68390;52.130;21.218;2024-03-23T09:50:41;19.38;;;9.70;;
78989;SDS011;68390;52.130;21.218;2024-03-23T09:53:08;21.88;;;9.90;;
78989;SDS011;68390;52.130;21.218;2024-03-23T09:55:36;21.20;;;9.98;;
78989;SDS011;68390;52.130;21.218;2024-03-23T09:58:02;17.30;;;8.98;;
78989;SDS011;68390;52.130;21.218;2024-03-23T10:00:28;17.50;;;9.25;;
78989;SDS011;68390;52.130;21.218;2024-03-23T10:02:57;15.80;;;8.52;;
78989;SDS011;68390;52.130;21.218;2024-03-23T10:05:27;19.98;;;9.48;;
78989;SDS011;68390;52.130;21.218;2024-03-23T10:07:53;15.52;;;8.18;;
78989;SDS011;68390;52.130;21.218;2024-03-23T10:10:18;16.35;;;9.07;;
78989;SDS011;68390;52.130;21.218;2024-03-23T10:12:45;16.75;;;7.88;;
78989;SDS011;68390;52.130;21.218;2024-03-23T10:15:21;15.25;;;8.25;;
78989;SDS011;68390;52.130;21.218;2024-03-23T10:17:48;20.13;;;9.00;;
78989;SDS011;68390;52.130;21.218;2024-03-23T10:20:19;15.50;;;8.18;;
78989;SDS011;68390;52.130;21.218;2024-03-23T10:22:47;15.57;;;8.27;;
78989;SDS011;68390;52.130;21.218;2024-03-23T10:25:13;15.10;;;7.90;;
78989;SDS011;68390;52.130;21.218;2024-03-23T10:27:39;14.63;;;8.10;;
78989;SDS011;68390;52.130;21.218;2024-03-23T10:30:11;14.68;;;7.90;;
78989;SDS011;68390;52.130;21.218;2024-03-23T10:32:38;13.90;;;7.70;;
78989;SDS011;68390;52.130;21.218;2024-03-23T10:35:16;13.82;;;7.70;;
78989;SDS011;68390;52.130;21.218;2024-03-23T10:37:49;14.75;;;7.50;;
78989;SDS011;68390;52.130;21.218;2024-03-23T10:40:16;14.20;;;7.97;;
78989;SDS011;68390;52.130;21.218;2024-03-23T10:42:43;11.85;;;6.75;;
78989;SDS011;68390;52.130;21.218;2024-03-23T10:45:09;12.95;;;7.38;;
78989;SDS011;68390;52.130;21.218;2024-03-23T10:47:35;17.10;;;7.95;;
78989;SDS011;68390;52.130;21.218;2024-03-23T10:50:05;12.32;;;7.88;;
78989;SDS011;68390;52.130;21.218;2024-03-23T10:52:34;12.93;;;7.50;;
78989;SDS011;68390;52.130;21.218;2024-03-23T10:57:38;12.07;;;6.57;;
78989;SDS011;68390;52.130;21.218;2024-03-23T11:00:06;12.93;;;6.80;;
78989;SDS011;68390;52.130;21.218;2024-03-23T11:02:33;10.50;;;6.95;;
78989;SDS011;68390;52.130;21.218;2024-03-23T11:04:59;11.40;;;6.75;;
78989;SDS011;68390;52.130;21.218;2024-03-23T11:09:54;11.52;;;7.15;;
78989;SDS011;68390;52.130;21.218;2024-03-23T11:14:45;16.30;;;6.97;;
78989;SDS011;68390;52.130;21.218;2024-03-23T11:17:11;10.98;;;6.65;;
78989;SDS011;68390;52.130;21.218;2024-03-23T11:19:37;12.60;;;6.57;;
78989;SDS011;68390;52.130;21.218;2024-03-23T11:22:03;12.52;;;7.25;;
78989;SDS011;68390;52.130;21.218;2024-03-23T11:24:30;15.23;;;7.15;;
78989;SDS011;68390;52.130;21.218;2024-03-23T11:26:56;12.35;;;6.72;;
78989;SDS011;68390;52.130;21.218;2024-03-23T11:29:21;13.82;;;7.35;;
78989;SDS011;68390;52.130;21.218;2024-03-23T11:31:47;10.57;;;6.60;;
78989;SDS011;68390;52.130;21.218;2024-03-23T11:34:15;12.07;;;6.88;;
78989;SDS011;68390;52.130;21.218;2024-03-23T11:36:41;10.15;;;6.30;;
78989;SDS011;68390;52.130;21.218;2024-03-23T11:39:11;10.35;;;6.25;;
78989;SDS011;68390;52.130;21.218;2024-03-23T11:41:44;8.85;;;5.78;;
78989;SDS011;68390;52.130;21.218;2024-03-23T11:44:19;11.38;;;6.00;;
78989;SDS011;68390;52.130;21.218;2024-03-23T11:46:47;10.65;;;6.22;;
78989;SDS011;68390;52.130;21.218;2024-03-23T11:49:20;9.48;;;6.15;;
78989;SDS011;68390;52.130;21.218;2024-03-23T11:51:52;9.77;;;5.85;;
78989;SDS011;68390;52.130;21.218;2024-03-23T11:54:21;11.23;;;6.10;;
78989;SDS011;68390;52.130;21.218;2024-03-23T11:56:54;11.05;;;5.88;;
78989;SDS011;68390;52.130;21.218;2024-03-23T12:02:15;9.43;;;6.18;;
78989;SDS011;68390;52.130;21.218;2024-03-23T12:04:43;8.05;;;5.15;;
78989;SDS011;68390;52.130;21.218;2024-03-23T12:07:12;10.73;;;5.68;;
78989;SDS011;68390;52.130;21.218;2024-03-23T12:09:38;10.50;;;5.55;;
78989;SDS011;68390;52.130;21.218;2024-03-23T12:12:11;10.20;;;5.53;;
78989;SDS011;68390;52.130;21.218;2024-03-23T12:14:42;9.18;;;5.35;;
78989;SDS011;68390;52.130;21.218;2024-03-23T12:19:38;9.30;;;5.68;;
78989;SDS011;68390;52.130;21.218;2024-03-23T12:22:22;8.70;;;5.47;;
78989;SDS011;68390;52.130;21.218;2024-03-23T12:24:48;9.60;;;5.55;;
78989;SDS011;68390;52.130;21.218;2024-03-23T12:27:14;9.68;;;5.47;;
78989;SDS011;68390;52.130;21.218;2024-03-23T12:29:40;11.63;;;5.95;;
78989;SDS011;68390;52.130;21.218;2024-03-23T12:32:06;10.88;;;6.22;;
78989;SDS011;68390;52.130;21.218;2024-03-23T12:34:32;11.23;;;6.20;;
78989;SDS011;68390;52.130;21.218;2024-03-23T12:36:58;10.27;;;6.20;;
78989;SDS011;68390;52.130;21.218;2024-03-23T12:39:23;9.75;;;6.15;;
78989;SDS011;68390;52.130;21.218;2024-03-23T12:41:49;10.45;;;5.43;;
78989;SDS011;68390;52.130;21.218;2024-03-23T12:44:15;10.00;;;5.88;;
78989;SDS011;68390;52.130;21.218;2024-03-23T12:46:41;13.30;;;6.43;;
78989;SDS011;68390;52.130;21.218;2024-03-23T12:49:07;11.38;;;6.72;;
78989;SDS011;68390;52.130;21.218;2024-03-23T12:51:33;9.52;;;5.80;;
78989;SDS011;68390;52.130;21.218;2024-03-23T12:53:59;14.30;;;6.35;;
78989;SDS011;68390;52.130;21.218;2024-03-23T12:56:24;9.15;;;5.75;;
78989;SDS011;68390;52.130;21.218;2024-03-23T12:58:50;9.25;;;5.95;;
78989;SDS011;68390;52.130;21.218;2024-03-23T13:01:19;8.95;;;6.03;;
78989;SDS011;68390;52.130;21.218;2024-03-23T13:03:47;9.35;;;5.40;;
78989;SDS011;68390;52.130;21.218;2024-03-23T13:06:14;9.13;;;5.68;;
78989;SDS011;68390;52.130;21.218;2024-03-23T13:08:40;9.93;;;6.10;;
78989;SDS011;68390;52.130;21.218;2024-03-23T13:11:07;9.63;;;6.05;;
78989;SDS011;68390;52.130;21.218;2024-03-23T13:13:36;8.48;;;5.25;;
78989;SDS011;68390;52.130;21.218;2024-03-23T13:16:01;9.25;;;5.00;;
78989;SDS011;68390;52.130;21.218;2024-03-23T13:18:28;9.20;;;5.32;;
78989;SDS011;68390;52.130;21.218;2024-03-23T13:20:54;7.55;;;5.10;;
78989;SDS011;68390;52.130;21.218;2024-03-23T13:23:19;7.90;;;5.38;;
78989;SDS011;68390;52.130;21.218;2024-03-23T13:28:20;8.00;;;4.80;;
78989;SDS011;68390;52.130;21.218;2024-03-23T13:30:52;9.20;;;5.03;;
78989;SDS011;68390;52.130;21.218;2024-03-23T13:33:18;8.25;;;4.82;;
78989;SDS011;68390;52.130;21.218;2024-03-23T13:35:53;9.75;;;4.65;;
78989;SDS011;68390;52.130;21.218;2024-03-23T13:38:23;7.20;;;4.18;;
78989;SDS011;68390;52.130;21.218;2024-03-23T13:40:58;6.53;;;4.50;;
78989;SDS011;68390;52.130;21.218;2024-03-23T13:43:25;7.72;;;4.22;;
78989;SDS011;68390;52.130;21.218;2024-03-23T13:45:53;8.63;;;4.18;;
78989;SDS011;68390;52.130;21.218;2024-03-23T13:48:20;7.68;;;4.72;;
78989;SDS011;68390;52.130;21.218;2024-03-23T13:50:47;8.23;;;4.32;;
78989;SDS011;68390;52.130;21.218;2024-03-23T13:53:21;7.22;;;4.65;;
78989;SDS011;68390;52.130;21.218;2024-03-23T13:55:48;6.75;;;4.90;;
78989;SDS011;68390;52.130;21.218;2024-03-23T13:58:15;8.23;;;4.50;;
78989;SDS011;68390;52.130;21.218;2024-03-23T14:00:40;8.15;;;5.10;;
78989;SDS011;68390;52.130;21.218;2024-03-23T14:03:09;8.93;;;4.20;;
78989;SDS011;68390;52.130;21.218;2024-03-23T14:05:35;8.50;;;4.28;;
78989;SDS011;68390;52.130;21.218;2024-03-23T14:08:04;8.43;;;4.90;;
78989;SDS011;68390;52.130;21.218;2024-03-23T14:10:30;6.95;;;4.78;;
78989;SDS011;68390;52.130;21.218;2024-03-23T14:12:56;8.15;;;4.47;;
78989;SDS011;68390;52.130;21.218;2024-03-23T14:15:21;8.18;;;4.80;;
78989;SDS011;68390;52.130;21.218;2024-03-23T14:17:47;8.43;;;3.85;;
78989;SDS011;68390;52.130;21.218;2024-03-23T14:20:12;6.78;;;4.35;;
78989;SDS011;68390;52.130;21.218;2024-03-23T14:22:38;8.75;;;5.32;;
78989;SDS011;68390;52.130;21.218;2024-03-23T14:25:06;8.55;;;5.07;;
78989;SDS011;68390;52.130;21.218;2024-03-23T14:27:32;11.45;;;5.03;;
78989;SDS011;68390;52.130;21.218;2024-03-23T14:29:57;10.02;;;5.00;;
78989;SDS011;68390;52.130;21.218;2024-03-23T14:32:23;8.40;;;4.90;;
78989;SDS011;68390;52.130;21.218;2024-03-23T14:34:48;7.93;;;5.00;;
78989;SDS011;68390;52.130;21.218;2024-03-23T14:37:14;8.73;;;5.38;;
78989;SDS011;68390;52.130;21.218;2024-03-23T14:39:41;9.07;;;4.78;;
78989;SDS011;68390;52.130;21.218;2024-03-23T14:42:07;7.07;;;4.97;;
78989;SDS011;68390;52.130;21.218;2024-03-23T14:44:35;6.90;;;4.90;;
78989;SDS011;68390;52.130;21.218;2024-03-23T14:47:00;8.23;;;5.68;;
78989;SDS011;68390;52.130;21.218;2024-03-23T14:49:26;8.82;;;5.45;;
78989;SDS011;68390;52.130;21.218;2024-03-23T14:51:51;7.55;;;5.07;;
78989;SDS011;68390;52.130;21.218;2024-03-23T14:54:17;10.45;;;7.00;;
78989;SDS011;68390;52.130;21.218;2024-03-23T14:56:42;29.50;;;15.73;;
78989;SDS011;68390;52.130;21.218;2024-03-23T14:59:08;43.17;;;18.77;;
78989;SDS011;68390;52.130;21.218;2024-03-23T15:01:33;27.90;;;14.80;;
78989;SDS011;68390;52.130;21.218;2024-03-23T15:03:59;22.45;;;12.15;;
78989;SDS011;68390;52.130;21.218;2024-03-23T15:06:25;22.23;;;11.60;;
78989;SDS011;68390;52.130;21.218;2024-03-23T15:08:50;23.60;;;12.18;;
78989;SDS011;68390;52.130;21.218;2024-03-23T15:11:16;30.63;;;16.10;;
78989;SDS011;68390;52.130;21.218;2024-03-23T15:13:44;13.20;;;6.97;;
78989;SDS011;68390;52.130;21.218;2024-03-23T15:16:11;12.18;;;6.85;;
78989;SDS011;68390;52.130;21.218;2024-03-23T15:18:42;17.80;;;8.32;;
78989;SDS011;68390;52.130;21.218;2024-03-23T15:21:08;16.67;;;8.77;;
78989;SDS011;68390;52.130;21.218;2024-03-23T15:23:36;15.80;;;8.65;;
78989;SDS011;68390;52.130;21.218;2024-03-23T15:26:04;14.27;;;8.60;;